Edwards Crossroads, North Carolina
Current Conditions -  °F | °C
As of 2:55 AM on Wednesday 26 Nov 2014 (Local Time) from KGEV Reporting Station
Moderate Rain Moderate Rain  
Wind Chill: 32°   Ceiling: 2700
Heat Index: 37°   Visibility: 4mi
Dew Point: 33°   Wind: 6mph
Humidity: 88%   Direction: 340°NNW
Pressure: 29.97"   Gusts: NA
Location:  36.5212°N, 81.1574°W
Report Text: KGEV 260755Z AUTO 34005KT 4SM RA OVC027 03/01 A2997 RMK AO2 P0002 T00250007
Loading
Personal Weather Stations






























Interactive Weather Map New forecast layout! Learn more

10-Day Weather Forecast

Advertisements
Track Severe Weather on mobile